createdAt,value
2018-12-27T00:02:05.001Z,16.37
2018-12-27T00:05:07.003Z,16.40
2018-12-27T00:08:08.961Z,16.70
2018-12-27T00:11:10.877Z,16.03
2018-12-27T00:14:12.862Z,16.60
2018-12-27T00:17:14.800Z,14.80
2018-12-27T00:20:16.729Z,17.33
2018-12-27T00:23:18.664Z,16.83
2018-12-27T00:26:20.683Z,16.23
2018-12-27T00:29:22.624Z,15.30
2018-12-27T00:32:24.601Z,15.20
2018-12-27T00:35:26.589Z,14.57
2018-12-27T00:38:28.813Z,15.73
2018-12-27T00:41:30.782Z,15.60
2018-12-27T00:44:32.740Z,16.63
2018-12-27T00:47:34.767Z,15.10
2018-12-27T00:50:36.755Z,16.57
2018-12-27T00:53:38.696Z,14.83
2018-12-27T00:56:40.646Z,17.73
2018-12-27T00:59:42.721Z,16.70
2018-12-27T01:02:44.644Z,15.23
2018-12-27T01:05:46.739Z,15.80
2018-12-27T01:08:48.702Z,16.83
2018-12-27T01:11:50.643Z,16.83
2018-12-27T01:14:52.636Z,18.23
2018-12-27T01:17:54.583Z,15.57
2018-12-27T01:20:56.544Z,16.60
2018-12-27T01:23:58.515Z,17.47
2018-12-27T01:27:00.517Z,15.73
2018-12-27T01:30:02.554Z,17.63
2018-12-27T01:33:05.781Z,16.87
2018-12-27T01:36:07.719Z,15.00
2018-12-27T01:39:09.870Z,15.67
2018-12-27T01:42:11.759Z,15.53
2018-12-27T01:45:13.690Z,14.57
2018-12-27T01:48:15.696Z,14.60
2018-12-27T01:51:17.603Z,14.30
2018-12-27T01:54:19.534Z,13.77
2018-12-27T01:57:21.459Z,12.93
2018-12-27T02:00:23.487Z,13.27
2018-12-27T02:03:26.634Z,12.97
2018-12-27T02:06:28.848Z,14.33
2018-12-27T02:09:30.813Z,13.73
2018-12-27T02:12:32.751Z,14.23
2018-12-27T02:15:34.703Z,13.80
2018-12-27T02:18:36.723Z,13.30
2018-12-27T02:21:38.636Z,12.90
2018-12-27T02:24:40.584Z,13.30
2018-12-27T02:27:42.565Z,13.90
2018-12-27T02:30:44.493Z,12.97
2018-12-27T02:33:46.405Z,12.30
2018-12-27T02:36:48.350Z,11.50
2018-12-27T02:39:50.540Z,11.47
2018-12-27T02:42:52.839Z,12.67
2018-12-27T02:45:54.789Z,13.23
2018-12-27T02:48:56.869Z,12.37
2018-12-27T02:51:58.772Z,12.80
2018-12-27T02:55:00.842Z,12.53
2018-12-27T02:58:02.791Z,13.83
2018-12-27T03:01:04.931Z,12.37
2018-12-27T03:04:07.839Z,12.93
2018-12-27T03:07:09.879Z,11.37
2018-12-27T03:10:11.866Z,12.10
2018-12-27T03:13:13.859Z,12.93
2018-12-27T03:16:15.805Z,13.20
2018-12-27T03:19:17.919Z,13.03
2018-12-27T03:22:19.990Z,12.77
2018-12-27T03:25:21.923Z,11.70
2018-12-27T03:28:23.900Z,12.50
2018-12-27T03:31:25.820Z,12.00
2018-12-27T03:34:27.786Z,11.60
2018-12-27T03:37:30.896Z,11.93
2018-12-27T03:40:33.240Z,11.77
2018-12-27T03:43:35.243Z,11.03
2018-12-27T03:46:37.196Z,13.27
2018-12-27T03:49:39.216Z,12.37
2018-12-27T03:52:41.109Z,12.93
2018-12-27T03:55:43.162Z,11.77
2018-12-27T03:58:45.200Z,11.83
2018-12-27T04:01:47.222Z,12.13
2018-12-27T04:04:50.282Z,11.67
2018-12-27T04:07:52.338Z,12.93
2018-12-27T04:10:54.284Z,11.27
2018-12-27T04:13:56.275Z,11.83
2018-12-27T04:16:58.192Z,11.23
2018-12-27T04:20:00.261Z,10.97
2018-12-27T04:23:02.172Z,11.07
2018-12-27T04:26:04.332Z,11.87
2018-12-27T04:29:06.365Z,9.73
2018-12-27T04:32:08.571Z,10.73
2018-12-27T04:35:10.968Z,9.73
2018-12-27T04:38:13.006Z,10.20
2018-12-27T04:41:14.977Z,9.27
2018-12-27T04:44:17.155Z,9.37
2018-12-27T04:47:19.246Z,9.47
2018-12-27T04:50:21.222Z,9.33
2018-12-27T04:53:23.171Z,7.97
2018-12-27T04:56:25.143Z,8.67
2018-12-27T04:59:27.112Z,8.37
2018-12-27T05:02:29.159Z,9.40
2018-12-27T05:05:31.118Z,8.70
2018-12-27T05:08:33.212Z,8.83
2018-12-27T05:11:35.210Z,8.47
2018-12-27T05:14:37.182Z,8.07
2018-12-27T05:17:39.151Z,8.93
2018-12-27T05:20:41.133Z,8.93
2018-12-27T05:23:44.215Z,8.90
2018-12-27T05:26:46.133Z,8.77
2018-12-27T05:29:48.082Z,8.23
2018-12-27T05:32:50.034Z,8.07
2018-12-27T05:35:52.981Z,8.10
2018-12-27T05:38:54.966Z,7.33
2018-12-27T05:41:56.890Z,7.20
2018-12-27T05:44:58.945Z,7.43
2018-12-27T05:48:00.886Z,7.40
2018-12-27T05:51:02.919Z,8.20
2018-12-27T05:54:04.882Z,7.97
2018-12-27T05:57:06.823Z,7.07
2018-12-27T06:00:08.792Z,6.53
2018-12-27T06:03:10.846Z,6.63
2018-12-27T06:06:12.790Z,6.77
2018-12-27T06:09:14.940Z,5.97
2018-12-27T06:12:16.931Z,5.50
2018-12-27T06:15:18.955Z,5.70
2018-12-27T06:18:20.925Z,5.13
2018-12-27T06:21:22.958Z,6.10
2018-12-27T06:24:25.546Z,6.63
2018-12-27T06:27:27.539Z,5.60
2018-12-27T06:30:29.483Z,6.40
2018-12-27T06:33:31.441Z,5.27
2018-12-27T06:36:33.391Z,5.63
2018-12-27T06:39:35.486Z,6.23
2018-12-27T06:42:37.434Z,6.10
2018-12-27T06:45:39.513Z,5.40
2018-12-27T06:48:41.459Z,5.40
2018-12-27T06:51:43.393Z,5.27
2018-12-27T06:54:45.346Z,5.27
2018-12-27T06:57:47.351Z,4.67
2018-12-27T07:00:49.296Z,4.87
2018-12-27T07:03:51.337Z,4.70
2018-12-27T07:06:53.286Z,5.13
2018-12-27T07:09:55.379Z,4.73
2018-12-27T07:12:57.396Z,4.87
2018-12-27T07:15:59.499Z,4.63
2018-12-27T07:19:01.763Z,5.10
2018-12-27T07:22:03.809Z,4.27
2018-12-27T07:25:05.935Z,6.33
2018-12-27T07:28:08.130Z,5.10
2018-12-27T07:31:10.197Z,5.50
2018-12-27T07:34:12.520Z,5.00
2018-12-27T07:37:14.587Z,9.63
2018-12-27T07:40:16.739Z,6.67
2018-12-27T07:43:18.692Z,8.43
2018-12-27T07:46:20.784Z,11.67
2018-12-27T07:49:22.769Z,6.53
2018-12-27T07:52:24.817Z,23.43
2018-12-27T07:55:26.827Z,16.07
2018-12-27T07:58:28.876Z,15.77
2018-12-27T08:01:31.236Z,17.27
2018-12-27T08:04:33.246Z,20.43
2018-12-27T08:07:35.248Z,26.60
2018-12-27T08:10:37.220Z,19.23
2018-12-27T08:13:39.303Z,21.23
2018-12-27T08:16:41.352Z,10.50
2018-12-27T08:19:43.318Z,6.57
2018-12-27T08:22:45.257Z,6.23
2018-12-27T08:25:47.312Z,5.67
2018-12-27T08:28:49.265Z,4.80
2018-12-27T08:31:51.188Z,4.80
2018-12-27T08:34:53.220Z,5.30
2018-12-27T08:37:55.077Z,5.07
2018-12-27T08:40:57.138Z,5.07
2018-12-27T08:43:59.212Z,5.20
2018-12-27T08:47:01.309Z,5.27
2018-12-27T08:50:05.611Z,6.10
2018-12-27T08:53:07.643Z,11.37
2018-12-27T08:56:09.635Z,8.00
2018-12-27T08:59:11.665Z,6.70
2018-12-27T09:02:13.781Z,6.83
2018-12-27T09:05:19.074Z,5.63
2018-12-27T09:08:19.633Z,4.93
2018-12-27T09:11:21.489Z,6.97
2018-12-27T09:14:24.592Z,4.93
2018-12-27T09:17:27.645Z,5.80
2018-12-27T09:20:29.643Z,5.60
2018-12-27T09:23:31.701Z,6.27
2018-12-27T09:26:33.762Z,6.20
2018-12-27T09:29:35.812Z,5.40
2018-12-27T09:32:37.850Z,6.20
2018-12-27T09:35:39.810Z,5.10
2018-12-27T09:38:41.816Z,6.67
2018-12-27T09:41:43.705Z,4.73
2018-12-27T09:44:45.727Z,4.87
2018-12-27T09:47:47.686Z,6.77
2018-12-27T09:50:49.653Z,5.47
2018-12-27T09:53:52.091Z,4.90
2018-12-27T09:56:54.069Z,4.60
2018-12-27T09:59:56.062Z,4.80
2018-12-27T10:02:58.032Z,5.27
2018-12-27T10:06:00.222Z,6.33
2018-12-27T10:13:31.905Z,6.03
2018-12-27T10:16:34.283Z,5.13
2018-12-27T10:19:36.508Z,5.57
2018-12-27T10:22:38.582Z,5.00
2018-12-27T10:25:40.522Z,5.87
2018-12-27T10:28:42.759Z,5.00
2018-12-27T10:31:44.811Z,6.00
2018-12-27T10:34:46.779Z,5.63
2018-12-27T10:37:48.771Z,5.27
2018-12-27T10:40:50.812Z,6.00
2018-12-27T10:43:52.806Z,5.50
2018-12-27T10:46:54.780Z,6.07
2018-12-27T10:49:56.751Z,4.90
2018-12-27T10:52:58.737Z,5.20
2018-12-27T10:56:00.624Z,5.10
2018-12-27T10:59:02.633Z,19.97
2018-12-27T11:02:05.312Z,38.50
2018-12-27T11:05:07.369Z,34.10
2018-12-27T11:08:09.341Z,18.07
2018-12-27T11:11:11.263Z,30.97
2018-12-27T11:14:13.203Z,26.63
2018-12-27T11:17:15.225Z,7.83
2018-12-27T11:20:17.628Z,7.43
2018-12-27T11:23:19.671Z,6.30
2018-12-27T11:26:21.721Z,5.40
2018-12-27T11:29:25.317Z,6.40
2018-12-27T11:32:27.430Z,5.93
2018-12-27T11:35:29.425Z,6.30
2018-12-27T11:38:31.477Z,5.97
2018-12-27T11:41:33.525Z,7.17
2018-12-27T11:44:35.452Z,6.27
2018-12-27T11:47:37.464Z,7.03
2018-12-27T11:50:39.390Z,6.93
2018-12-27T11:53:41.321Z,6.70
2018-12-27T11:56:43.297Z,6.53
2018-12-27T11:59:45.411Z,6.20
2018-12-27T12:02:47.340Z,6.20
2018-12-27T12:05:49.303Z,5.37
2018-12-27T12:08:51.247Z,5.23
2018-12-27T12:11:53.115Z,5.47
2018-12-27T12:14:55.662Z,6.23
2018-12-27T12:17:57.524Z,6.20
2018-12-27T12:21:00.209Z,5.00
2018-12-27T12:24:02.230Z,5.57
2018-12-27T12:27:06.219Z,5.83
2018-12-27T12:30:09.488Z,6.63
2018-12-27T12:33:11.412Z,6.03
2018-12-27T12:36:13.329Z,7.77
2018-12-27T12:39:15.255Z,7.10
2018-12-27T12:42:17.449Z,26.10
2018-12-27T12:45:20.379Z,12.80
2018-12-27T12:48:22.445Z,10.13
2018-12-27T12:51:24.390Z,11.30
2018-12-27T12:54:28.244Z,8.93
2018-12-27T12:57:31.020Z,8.00
2018-12-27T13:00:35.319Z,6.70
2018-12-27T13:03:37.383Z,7.90
2018-12-27T13:06:39.350Z,6.73
2018-12-27T13:09:41.460Z,6.83
2018-12-27T13:12:43.391Z,7.23
2018-12-27T13:15:45.643Z,5.30
2018-12-27T13:18:47.851Z,5.53
2018-12-27T13:21:49.899Z,5.90
2018-12-27T13:24:51.821Z,5.87
2018-12-27T13:27:53.759Z,6.00
2018-12-27T13:30:55.711Z,5.80
2018-12-27T13:33:58.723Z,5.57
2018-12-27T13:37:00.708Z,6.63
2018-12-27T13:40:02.792Z,7.87
2018-12-27T13:43:05.035Z,6.93
2018-12-27T13:46:07.166Z,7.27
2018-12-27T13:49:09.288Z,7.53
2018-12-27T13:52:11.308Z,8.60
2018-12-27T13:55:13.340Z,8.60
2018-12-27T13:58:15.272Z,9.77
2018-12-27T14:01:17.253Z,9.63
2018-12-27T14:04:19.253Z,11.07
2018-12-27T14:07:21.204Z,9.10
2018-12-27T14:10:23.276Z,8.43
2018-12-27T14:13:25.209Z,9.00
2018-12-27T14:16:27.237Z,7.60
2018-12-27T14:19:29.257Z,7.73
2018-12-27T14:22:31.285Z,7.67
2018-12-27T14:25:33.291Z,8.37
2018-12-27T14:28:35.210Z,9.07
2018-12-27T14:31:37.266Z,8.20
2018-12-27T14:34:39.236Z,7.87
2018-12-27T14:37:41.210Z,7.20
2018-12-27T14:40:43.158Z,7.63
2018-12-27T14:43:45.140Z,7.17
2018-12-27T14:46:47.108Z,6.30
2018-12-27T14:49:49.114Z,6.93
2018-12-27T14:52:51.167Z,6.90
2018-12-27T14:55:53.190Z,7.87
2018-12-27T14:58:55.127Z,7.70
2018-12-27T15:01:57.089Z,10.63
2018-12-27T15:04:59.152Z,7.37
2018-12-27T15:08:01.633Z,8.63
2018-12-27T15:11:03.693Z,8.13
2018-12-27T15:14:05.796Z,7.43
2018-12-27T15:17:07.771Z,7.90
2018-12-27T15:20:10.016Z,16.77
2018-12-27T15:23:11.953Z,13.87
2018-12-27T15:26:13.977Z,16.00
2018-12-27T15:29:16.100Z,13.27
2018-12-27T15:32:18.360Z,16.70
2018-12-27T15:35:20.383Z,14.83
2018-12-27T15:38:22.511Z,19.90
2018-12-27T15:41:24.492Z,12.70
2018-12-27T15:44:26.535Z,12.20
2018-12-27T15:47:28.560Z,12.80
2018-12-27T15:50:30.537Z,10.40
2018-12-27T15:53:32.471Z,9.90
2018-12-27T15:56:34.678Z,9.87
2018-12-27T15:59:36.729Z,11.00
2018-12-27T16:02:38.838Z,10.40
2018-12-27T16:05:40.768Z,9.17
2018-12-27T16:08:42.795Z,10.50
2018-12-27T16:11:44.845Z,10.47
2018-12-27T16:14:46.958Z,11.23
2018-12-27T16:17:49.051Z,10.50
2018-12-27T16:20:51.109Z,10.10
2018-12-27T16:23:53.088Z,9.97
2018-12-27T16:26:55.040Z,11.20
2018-12-27T16:29:56.988Z,10.93
2018-12-27T16:32:59.028Z,10.50
2018-12-27T16:36:01.221Z,12.00
2018-12-27T16:39:05.228Z,11.10
2018-12-27T16:42:07.186Z,10.60
2018-12-27T16:45:09.138Z,10.17
2018-12-27T16:48:11.061Z,9.30
2018-12-27T16:51:13.076Z,9.40
2018-12-27T16:54:15.083Z,9.90
2018-12-27T16:57:19.790Z,9.60
2018-12-27T17:00:20.986Z,11.27
2018-12-27T17:03:22.941Z,10.87
2018-12-27T17:06:26.094Z,10.77
2018-12-27T17:09:28.272Z,11.60
2018-12-27T17:12:30.247Z,11.83
2018-12-27T17:15:32.294Z,10.80
2018-12-27T17:18:34.725Z,12.17
2018-12-27T17:21:36.680Z,12.23
2018-12-27T17:24:38.748Z,14.13
2018-12-27T17:27:40.616Z,11.97
2018-12-27T17:30:42.699Z,11.47
2018-12-27T17:33:44.697Z,11.63
2018-12-27T17:36:46.831Z,11.57
2018-12-27T17:39:49.043Z,11.80
2018-12-27T17:42:51.017Z,11.87
2018-12-27T17:45:52.992Z,11.33
2018-12-27T17:48:55.086Z,11.53
2018-12-27T17:51:57.173Z,12.03
2018-12-27T17:54:59.181Z,12.23
2018-12-27T17:58:01.221Z,11.50
2018-12-27T18:01:03.443Z,11.73
2018-12-27T18:04:05.482Z,12.20
2018-12-27T18:07:07.426Z,11.20
2018-12-27T18:10:09.413Z,11.33
2018-12-27T18:13:11.358Z,12.63
2018-12-27T18:16:13.422Z,11.83
2018-12-27T18:19:15.489Z,11.30
2018-12-27T18:22:17.494Z,10.40
2018-12-27T18:25:19.637Z,10.63
2018-12-27T18:28:21.749Z,11.40
2018-12-27T18:31:23.730Z,12.13
2018-12-27T18:34:25.729Z,10.87
2018-12-27T18:37:27.831Z,9.90
2018-12-27T18:40:29.873Z,11.17
2018-12-27T18:43:32.398Z,10.20
2018-12-27T18:46:34.463Z,9.77
2018-12-27T18:49:36.438Z,10.23
2018-12-27T18:52:38.391Z,9.63
2018-12-27T18:55:40.789Z,9.63
2018-12-27T18:58:43.937Z,9.47
2018-12-27T19:01:46.027Z,9.53
2018-12-27T19:04:49.850Z,8.67
2018-12-27T19:07:52.030Z,12.47
2018-12-27T19:11:31.519Z,9.20
2018-12-27T19:14:33.653Z,8.87
2018-12-27T19:17:38.964Z,8.77
2018-12-27T19:20:43.013Z,8.67
2018-12-27T19:23:45.145Z,8.10
2018-12-27T19:26:48.663Z,7.60
2018-12-27T19:29:51.046Z,7.53
2018-12-27T19:32:53.111Z,9.33
2018-12-27T19:35:55.185Z,8.20
2018-12-27T19:38:57.229Z,7.77
2018-12-27T19:41:59.293Z,7.90
2018-12-27T19:45:02.600Z,7.20
2018-12-27T19:48:06.401Z,7.83
2018-12-27T19:51:08.432Z,9.03
2018-12-27T19:54:10.404Z,9.77
2018-12-27T19:57:14.194Z,8.13
2018-12-27T20:00:18.000Z,9.40
2018-12-27T20:03:21.964Z,8.27
2018-12-27T20:06:24.175Z,8.77
2018-12-27T20:09:27.618Z,8.23
2018-12-27T20:12:29.587Z,8.87
2018-12-27T20:15:32.695Z,9.40
2018-12-27T20:18:35.000Z,9.37
2018-12-27T20:21:37.443Z,9.50
2018-12-27T20:24:39.888Z,8.33
2018-12-27T20:27:41.850Z,8.53
2018-12-27T20:30:43.773Z,9.70
2018-12-27T20:33:46.069Z,9.57
2018-12-27T20:36:49.170Z,8.77
2018-12-27T20:39:52.813Z,8.63
2018-12-27T20:42:54.752Z,8.93
2018-12-27T20:45:56.802Z,9.77
2018-12-27T20:48:59.947Z,8.63
2018-12-27T20:52:04.406Z,9.53
2018-12-27T20:55:06.851Z,8.73
2018-12-27T20:58:10.242Z,10.10
2018-12-27T21:01:12.149Z,10.07
2018-12-27T21:04:14.139Z,11.47
2018-12-27T21:07:16.856Z,9.90
2018-12-27T21:10:18.854Z,8.57
2018-12-27T21:13:23.163Z,8.93
2018-12-27T21:16:26.500Z,10.93
2018-12-27T21:19:28.503Z,8.17
2018-12-27T21:22:32.711Z,9.43
2018-12-27T21:25:36.795Z,9.83
2018-12-27T21:28:38.787Z,9.40
2018-12-27T21:31:41.871Z,10.67
2018-12-27T21:34:43.853Z,9.43
2018-12-27T21:37:45.748Z,10.07
2018-12-27T21:40:47.735Z,9.23
2018-12-27T21:43:49.958Z,10.87
2018-12-27T21:46:51.953Z,9.83
2018-12-27T21:49:53.908Z,9.90
2018-12-27T21:52:55.918Z,9.37
2018-12-27T21:55:57.938Z,9.00
2018-12-27T21:58:59.958Z,9.70
2018-12-27T22:02:01.915Z,9.27
2018-12-27T22:05:04.011Z,10.03
2018-12-27T22:08:06.595Z,11.07
2018-12-27T22:11:09.032Z,9.03
2018-12-27T22:14:10.991Z,9.63
2018-12-27T22:17:12.958Z,9.13
2018-12-27T22:20:15.067Z,9.10
2018-12-27T22:23:16.999Z,9.30
2018-12-27T22:26:19.121Z,9.33
2018-12-27T22:29:21.060Z,10.63
2018-12-27T22:32:23.083Z,10.50
2018-12-27T22:35:25.050Z,11.37
2018-12-27T22:38:27.078Z,11.10
2018-12-27T22:41:29.002Z,9.80
2018-12-27T22:44:30.942Z,10.60
2018-12-27T22:47:32.951Z,10.93
2018-12-27T22:50:34.905Z,10.17
2018-12-27T22:53:36.875Z,10.50
2018-12-27T22:56:38.853Z,8.90
2018-12-27T22:59:40.847Z,9.40
2018-12-27T23:02:42.757Z,9.80
2018-12-27T23:05:44.763Z,10.47
2018-12-27T23:08:46.766Z,9.33
2018-12-27T23:11:49.314Z,9.83
2018-12-27T23:14:51.303Z,9.37
2018-12-27T23:17:53.208Z,9.37
2018-12-27T23:20:55.175Z,10.17
2018-12-27T23:23:57.822Z,10.03
2018-12-27T23:27:00.732Z,10.23
2018-12-27T23:30:04.611Z,9.67
2018-12-27T23:33:06.624Z,9.87
2018-12-27T23:36:08.612Z,9.67
2018-12-27T23:39:10.806Z,10.83
2018-12-27T23:42:12.927Z,9.63
2018-12-27T23:45:15.195Z,9.97
2018-12-27T23:48:17.259Z,8.93
2018-12-27T23:51:19.258Z,9.50
2018-12-27T23:54:21.261Z,9.47
2018-12-27T23:57:23.219Z,9.30
